Time;durP1;ratioP1;P1;durP2;ratioP2;P2;SDS_P1;SDS_P2;PMS_P1;PMS_P2;Temp;Humidity;BMP_temperature;BMP_pressure;BME280_temperature;BME280_humidity;BME280_pressure;Samples;Min_cycle;Max_cycle;Signal;HPM_P1;HPM_P2
2023/12/04 00:01:00;;;;;;;6.50;4.57;;;6.00;99.90;;;;;;5138605;27;20470;-72
2023/12/04 00:03:26;;;;;;;8.63;5.20;;;5.90;99.90;;;;;;5138349;27;20034;-73
2023/12/04 00:05:51;;;;;;;5.00;4.60;;;5.90;99.90;;;;;;5138747;27;20028;-72
2023/12/04 00:08:17;;;;;;;5.07;4.38;;;5.80;99.90;;;;;;5137996;27;20027;-70
2023/12/04 00:10:42;;;;;;;5.13;4.30;;;5.80;99.90;;;;;;5138502;27;20533;-72
2023/12/04 00:13:08;;;;;;;5.13;4.70;;;5.80;99.90;;;;;;5138268;27;20031;-73
2023/12/04 00:15:34;;;;;;;4.93;4.45;;;5.80;99.90;;;;;;5138281;27;20019;-72
2023/12/04 00:18:00;;;;;;;9.50;4.55;;;5.70;99.90;;;;;;5119125;27;20394;-72
2023/12/04 00:20:25;;;;;;;7.07;5.00;;;5.70;99.90;;;;;;5131665;27;20019;-73
2023/12/04 00:22:51;;;;;;;5.72;4.25;;;5.70;99.90;;;;;;5138011;27;20109;-72
2023/12/04 00:25:16;;;;;;;5.13;4.63;;;5.70;99.90;;;;;;5138286;27;20023;-73
2023/12/04 00:27:42;;;;;;;5.38;4.90;;;5.70;99.90;;;;;;5137898;27;20031;-73
2023/12/04 00:30:08;;;;;;;6.53;5.13;;;5.70;99.90;;;;;;5138075;27;20023;-73
2023/12/04 00:32:34;;;;;;;5.20;4.78;;;5.60;99.90;;;;;;5119209;27;20194;-72
2023/12/04 00:34:59;;;;;;;5.55;4.80;;;5.60;99.90;;;;;;5137909;27;20106;-73
2023/12/04 00:37:27;;;;;;;6.20;4.95;;;5.50;99.90;;;;;;5137808;27;20076;-73
2023/12/04 00:39:52;;;;;;;5.25;4.75;;;5.50;99.90;;;;;;5138005;27;20053;-74
2023/12/04 00:42:18;;;;;;;13.10;5.72;;;5.50;99.90;;;;;;5137681;27;20019;-73
2023/12/04 00:44:43;;;;;;;5.30;4.85;;;5.60;99.90;;;;;;5137834;27;20058;-73
2023/12/04 00:47:09;;;;;;;5.60;4.97;;;5.50;99.90;;;;;;5118791;27;20031;-74
2023/12/04 00:49:36;;;;;;;7.70;5.47;;;5.50;99.90;;;;;;5137822;27;20026;-73
2023/12/04 00:52:02;;;;;;;5.30;4.80;;;5.50;99.90;;;;;;5137423;27;20426;-74
2023/12/04 00:54:28;;;;;;;6.30;4.70;;;5.50;99.90;;;;;;5136962;27;20047;-74
2023/12/04 00:56:53;;;;;;;5.63;5.13;;;5.50;99.90;;;;;;5137305;27;20499;-73
2023/12/04 00:59:19;;;;;;;5.30;4.85;;;5.50;99.90;;;;;;5137596;27;20471;-73
2023/12/04 01:01:44;;;;;;;6.05;5.45;;;5.60;99.90;;;;;;5118020;27;20035;-72
2023/12/04 01:04:10;;;;;;;6.22;5.15;;;5.50;99.90;;;;;;5137453;27;20091;-74
2023/12/04 01:06:36;;;;;;;6.88;5.50;;;5.50;99.90;;;;;;5137231;27;20571;-74
2023/12/04 01:09:01;;;;;;;8.60;5.60;;;5.50;99.90;;;;;;5126552;27;20020;-73
2023/12/04 01:11:27;;;;;;;7.00;5.72;;;5.60;99.90;;;;;;5137211;27;20522;-73
2023/12/04 01:13:52;;;;;;;6.22;5.30;;;5.50;99.90;;;;;;5137137;27;20055;-73
2023/12/04 01:16:18;;;;;;;5.57;4.97;;;5.50;99.90;;;;;;5136204;27;20019;-73
2023/12/04 01:18:44;;;;;;;6.53;4.95;;;5.50;99.90;;;;;;5115983;27;20034;-74
2023/12/04 01:21:09;;;;;;;7.13;5.65;;;5.50;99.90;;;;;;5132817;27;20481;-73
2023/12/04 01:23:36;;;;;;;5.63;5.00;;;5.50;99.90;;;;;;5118437;27;20413;-73
2023/12/04 01:26:02;;;;;;;5.32;4.82;;;5.50;99.90;;;;;;5137168;27;20026;-74
2023/12/04 01:28:28;;;;;;;5.57;5.07;;;5.50;99.90;;;;;;5137001;27;20063;-73
2023/12/04 01:30:54;;;;;;;7.28;5.50;;;5.50;99.90;;;;;;5136715;27;20023;-74
2023/12/04 01:33:19;;;;;;;10.40;5.72;;;5.60;99.90;;;;;;5136769;27;20117;-74
2023/12/04 01:35:45;;;;;;;5.65;5.00;;;5.60;99.90;;;;;;5136899;27;20089;-73
2023/12/04 01:38:10;;;;;;;7.85;5.13;;;5.50;99.90;;;;;;5136506;27;20023;-74
2023/12/04 01:40:36;;;;;;;5.50;5.00;;;5.60;99.90;;;;;;5136822;27;20015;-75
2023/12/04 01:43:02;;;;;;;5.30;4.75;;;5.70;99.90;;;;;;5136707;27;20023;-73
2023/12/04 01:45:28;;;;;;;5.72;5.22;;;5.70;99.90;;;;;;5117680;27;20507;-74
2023/12/04 01:47:54;;;;;;;5.85;5.25;;;5.70;99.90;;;;;;5117764;27;20027;-74
2023/12/04 01:50:20;;;;;;;8.68;6.30;;;5.70;99.90;;;;;;5136714;27;20023;-75
2023/12/04 01:52:47;;;;;;;5.38;4.88;;;5.70;99.90;;;;;;5136345;27;20061;-73
2023/12/04 01:55:14;;;;;;;6.13;5.10;;;5.80;99.90;;;;;;5136518;27;20023;-74
2023/12/04 01:57:41;;;;;;;6.28;5.00;;;5.80;99.90;;;;;;5136477;27;20038;-73
2023/12/04 02:00:12;;;;;;;5.75;5.13;;;5.80;99.90;;;;;;5136712;27;20394;-73
2023/12/04 02:02:43;;;;;;;5.63;5.13;;;5.80;99.90;;;;;;5136189;27;20471;-73
2023/12/04 02:05:10;;;;;;;6.32;5.70;;;5.90;99.90;;;;;;5116382;28;20024;-74
2023/12/04 02:07:39;;;;;;;6.13;5.15;;;5.90;99.90;;;;;;5136233;27;20042;-74
2023/12/04 02:10:06;;;;;;;5.80;5.22;;;5.90;99.90;;;;;;5136316;28;20026;-72
2023/12/04 02:12:32;;;;;;;5.75;5.15;;;5.90;99.90;;;;;;5114513;28;20023;-72
2023/12/04 02:14:58;;;;;;;6.55;5.32;;;5.90;99.90;;;;;;5134217;28;20471;-74
2023/12/04 02:17:25;;;;;;;7.32;5.82;;;5.90;99.90;;;;;;5114554;28;20479;-73
2023/12/04 02:19:51;;;;;;;6.03;5.43;;;5.90;99.90;;;;;;5127724;28;20556;-73
2023/12/04 02:22:19;;;;;;;5.90;5.32;;;5.90;99.90;;;;;;5136317;28;20059;-73
2023/12/04 02:24:46;;;;;;;8.10;5.15;;;5.80;99.90;;;;;;5136065;28;20057;-73
2023/12/04 02:27:20;;;;;;;5.55;4.85;;;5.80;99.90;;;;;;5138012;27;20027;-73
2023/12/04 02:30:07;;;;;;;6.57;5.88;;;5.80;99.90;;;;;;5121847;27;20019;-74
2023/12/04 02:32:38;;;;;;;7.45;6.03;;;5.80;99.90;;;;;;5139906;27;20103;-73
2023/12/04 02:35:06;;;;;;;6.80;5.68;;;5.80;99.90;;;;;;5140372;27;20510;-73
2023/12/04 02:37:32;;;;;;;9.25;6.97;;;5.90;99.90;;;;;;5140028;27;20131;-73
2023/12/04 02:39:58;;;;;;;6.50;5.80;;;5.90;99.90;;;;;;5140376;27;20019;-73
2023/12/04 02:42:27;;;;;;;8.90;6.35;;;5.90;99.90;;;;;;5140133;27;20026;-74
2023/12/04 02:44:53;;;;;;;8.57;6.05;;;5.90;99.90;;;;;;5118289;28;20058;-73
2023/12/04 02:47:19;;;;;;;6.45;5.18;;;5.90;99.90;;;;;;5137411;27;20026;-73
2023/12/04 02:49:44;;;;;;;7.78;5.55;;;5.90;99.90;;;;;;5121870;27;20491;-73
2023/12/04 02:52:10;;;;;;;6.45;5.50;;;5.90;99.90;;;;;;5120275;27;20418;-73
2023/12/04 02:54:36;;;;;;;9.55;5.55;;;5.90;99.90;;;;;;5114493;28;20128;-73
2023/12/04 02:57:02;;;;;;;13.65;5.85;;;5.90;99.90;;;;;;5116702;28;20023;-72
2023/12/04 02:59:27;;;;;;;6.30;5.70;;;5.90;99.90;;;;;;5119423;28;20016;-74
2023/12/04 03:01:53;;;;;;;6.93;5.93;;;6.00;99.90;;;;;;5116630;28;20058;-73
2023/12/04 03:04:20;;;;;;;9.00;5.32;;;6.00;99.90;;;;;;5119306;28;20016;-73
2023/12/04 03:06:46;;;;;;;7.80;6.63;;;6.20;99.90;;;;;;5119189;28;20680;-73
2023/12/04 03:09:11;;;;;;;7.30;5.30;;;6.20;99.90;;;;;;5119141;28;20027;-73
2023/12/04 03:11:40;;;;;;;5.20;4.70;;;6.30;99.90;;;;;;5118963;28;20115;-73
2023/12/04 03:14:06;;;;;;;7.38;5.15;;;6.30;99.90;;;;;;5119063;28;20027;-73
2023/12/04 03:16:32;;;;;;;5.82;5.20;;;6.40;99.90;;;;;;5117323;28;20019;-74
2023/12/04 03:18:58;;;;;;;7.00;5.50;;;6.40;99.90;;;;;;5114512;28;20063;-73
2023/12/04 03:21:24;;;;;;;7.32;5.70;;;6.50;99.90;;;;;;5116227;28;20023;-73
2023/12/04 03:23:49;;;;;;;6.90;5.20;;;6.50;99.90;;;;;;5118975;28;20020;-73
2023/12/04 03:26:15;;;;;;;10.68;5.22;;;6.60;99.90;;;;;;5118605;28;20031;-71
2023/12/04 03:28:40;;;;;;;7.82;5.78;;;6.60;99.90;;;;;;5118674;28;20497;-73
2023/12/04 03:31:06;;;;;;;9.40;5.82;;;6.60;99.90;;;;;;5115131;28;20475;-74
2023/12/04 03:33:32;;;;;;;8.75;5.00;;;6.70;99.90;;;;;;5118789;28;20103;-73
2023/12/04 03:35:59;;;;;;;9.18;5.68;;;6.80;99.90;;;;;;5118434;28;20048;-73
2023/12/04 03:38:25;;;;;;;6.00;5.40;;;6.80;99.90;;;;;;5117774;28;20037;-72
2023/12/04 03:40:50;;;;;;;10.77;5.28;;;6.90;99.90;;;;;;5118356;28;20032;-72
2023/12/04 03:43:16;;;;;;;6.38;5.63;;;6.90;99.90;;;;;;5114187;28;20023;-73
2023/12/04 03:45:42;;;;;;;13.38;6.35;;;7.00;99.90;;;;;;5116128;28;20103;-73
2023/12/04 03:48:07;;;;;;;7.78;5.68;;;7.00;99.90;;;;;;5118326;28;20106;-71
2023/12/04 03:50:33;;;;;;;7.95;5.57;;;7.00;99.90;;;;;;5118277;28;20389;-73
2023/12/04 03:52:59;;;;;;;10.27;6.30;;;7.00;99.90;;;;;;5123460;27;20050;-71
2023/12/04 03:55:24;;;;;;;5.97;5.28;;;7.00;99.90;;;;;;5117789;27;20136;-72
2023/12/04 03:57:50;;;;;;;8.07;5.50;;;7.00;99.90;;;;;;5138842;27;20578;-72
2023/12/04 04:00:16;;;;;;;6.43;5.22;;;7.00;99.90;;;;;;5138498;27;20023;-72
2023/12/04 04:02:43;;;;;;;8.40;5.10;;;7.00;99.90;;;;;;5138580;27;20402;-72
2023/12/04 04:05:08;;;;;;;6.93;5.47;;;7.00;99.90;;;;;;5137684;27;20100;-72
2023/12/04 04:07:34;;;;;;;8.90;5.45;;;7.00;99.90;;;;;;5132775;27;20035;-72
2023/12/04 04:10:00;;;;;;;7.40;5.68;;;7.10;99.90;;;;;;5138272;27;20452;-72
2023/12/04 04:12:27;;;;;;;7.55;5.60;;;7.10;99.90;;;;;;5137627;27;20044;-71
2023/12/04 04:14:53;;;;;;;8.77;5.82;;;7.10;99.90;;;;;;5137664;27;20080;-72
2023/12/04 04:17:18;;;;;;;7.80;5.43;;;7.10;99.90;;;;;;5137782;27;20011;-71
2023/12/04 04:19:44;;;;;;;6.60;5.93;;;7.10;99.90;;;;;;5137160;27;20031;-72
2023/12/04 04:22:10;;;;;;;11.05;5.47;;;7.00;99.90;;;;;;5137931;27;20487;-72
2023/12/04 04:24:36;;;;;;;6.53;5.72;;;7.00;99.90;;;;;;5138343;27;20031;-72
2023/12/04 04:27:01;;;;;;;7.07;5.40;;;6.90;99.90;;;;;;5138162;27;20092;-72
2023/12/04 04:29:27;;;;;;;9.50;5.80;;;6.90;99.90;;;;;;5137080;27;20026;-72
2023/12/04 04:31:53;;;;;;;12.32;5.88;;;6.90;99.90;;;;;;5137749;27;20030;-72
2023/12/04 04:34:21;;;;;;;10.80;6.10;;;6.80;99.90;;;;;;5137829;27;20038;-72
2023/12/04 04:36:46;;;;;;;9.13;5.35;;;6.80;99.90;;;;;;5137820;27;20455;-72
2023/12/04 04:39:13;;;;;;;10.00;6.03;;;6.80;99.90;;;;;;5137994;27;20038;-72
2023/12/04 04:41:39;;;;;;;8.43;5.47;;;6.80;99.90;;;;;;5137832;27;20015;-72
2023/12/04 04:44:05;;;;;;;8.65;5.85;;;6.80;99.90;;;;;;5137927;27;20155;-72
2023/12/04 04:46:31;;;;;;;8.73;6.63;;;6.80;99.90;;;;;;5137462;27;20056;-73
2023/12/04 04:48:56;;;;;;;7.80;6.35;;;6.80;99.90;;;;;;5115837;28;20076;-72
2023/12/04 04:51:22;;;;;;;8.98;6.38;;;6.80;99.90;;;;;;5132386;27;20032;-72
2023/12/04 04:53:48;;;;;;;8.20;5.95;;;6.80;99.90;;;;;;5137360;27;20047;-72
2023/12/04 04:56:14;;;;;;;11.20;6.05;;;6.80;99.90;;;;;;5137367;27;20074;-72
2023/12/04 04:58:40;;;;;;;9.45;5.95;;;6.70;99.90;;;;;;5137738;27;20079;-72
2023/12/04 05:01:06;;;;;;;9.00;6.18;;;6.70;99.90;;;;;;5137300;27;20487;-72
2023/12/04 05:03:31;;;;;;;8.20;5.43;;;6.60;99.90;;;;;;5137444;27;20387;-70
2023/12/04 05:05:57;;;;;;;9.10;6.63;;;6.60;99.90;;;;;;5137448;27;20030;-70
2023/12/04 05:08:23;;;;;;;7.88;6.05;;;6.50;99.90;;;;;;5136770;27;20063;-70
2023/12/04 05:10:48;;;;;;;7.22;6.43;;;6.50;99.90;;;;;;5137383;27;20046;-70
2023/12/04 05:13:14;;;;;;;16.83;7.22;;;6.40;99.90;;;;;;5137133;27;20035;-69
2023/12/04 05:15:40;;;;;;;9.75;6.32;;;6.40;99.90;;;;;;5137306;27;21029;-70
2023/12/04 05:18:05;;;;;;;12.77;6.70;;;6.30;99.90;;;;;;5136804;27;20031;-69
2023/12/04 05:20:31;;;;;;;8.82;6.72;;;6.30;99.90;;;;;;5130154;27;20026;-70
2023/12/04 05:22:57;;;;;;;10.32;7.07;;;6.30;99.90;;;;;;5136843;27;20094;-70
2023/12/04 05:25:23;;;;;;;9.60;6.80;;;6.20;99.90;;;;;;5137224;27;20019;-70
2023/12/04 05:27:48;;;;;;;12.50;6.75;;;6.20;99.90;;;;;;5136876;27;20019;-70
2023/12/04 05:30:14;;;;;;;14.68;6.78;;;6.20;99.90;;;;;;5136998;27;20019;-69
2023/12/04 05:32:40;;;;;;;9.35;6.53;;;6.20;99.90;;;;;;5136596;27;20031;-71
2023/12/04 05:35:06;;;;;;;10.43;6.93;;;6.10;99.90;;;;;;5136937;27;20091;-71
2023/12/04 05:37:32;;;;;;;11.38;6.50;;;6.10;99.90;;;;;;5136713;27;20047;-70
2023/12/04 05:39:57;;;;;;;10.43;6.85;;;6.10;99.90;;;;;;5136864;27;20049;-71
2023/12/04 05:42:23;;;;;;;9.65;6.43;;;6.10;99.90;;;;;;5136573;27;20429;-70
2023/12/04 05:44:49;;;;;;;7.82;7.03;;;6.10;99.90;;;;;;5136848;27;20027;-70
2023/12/04 05:47:14;;;;;;;7.88;6.05;;;6.00;99.90;;;;;;5136485;27;20041;-71
2023/12/04 05:49:40;;;;;;;9.13;7.15;;;6.00;99.90;;;;;;5136674;27;20045;-71
2023/12/04 05:52:06;;;;;;;9.90;7.30;;;6.00;99.90;;;;;;5117622;28;20111;-71
2023/12/04 05:54:32;;;;;;;11.88;7.22;;;6.00;99.90;;;;;;5136415;27;20122;-70
2023/12/04 05:56:58;;;;;;;13.75;7.25;;;6.00;99.90;;;;;;5136526;27;20054;-71
2023/12/04 05:59:24;;;;;;;7.85;6.55;;;6.00;99.90;;;;;;5136647;27;20102;-71
2023/12/04 06:01:49;;;;;;;9.98;6.93;;;6.00;99.90;;;;;;5135644;27;20027;-71
2023/12/04 06:04:15;;;;;;;12.15;7.65;;;6.00;99.90;;;;;;5136568;27;20027;-72
2023/12/04 06:06:41;;;;;;;12.95;7.70;;;6.00;99.90;;;;;;5136295;27;20034;-71
2023/12/04 06:09:06;;;;;;;12.77;8.07;;;6.00;99.90;;;;;;5127976;28;20015;-72
2023/12/04 06:11:32;;;;;;;8.98;7.25;;;6.00;99.90;;;;;;5131636;28;20019;-71
2023/12/04 06:13:58;;;;;;;11.53;6.73;;;6.00;99.90;;;;;;5136292;28;20115;-72
2023/12/04 06:16:23;;;;;;;13.07;6.80;;;6.00;99.90;;;;;;5135072;28;20616;-73
2023/12/04 06:18:49;;;;;;;16.27;7.18;;;6.00;99.90;;;;;;5136120;28;20102;-72
2023/12/04 06:21:15;;;;;;;12.55;7.65;;;6.00;99.90;;;;;;5136276;28;20064;-72
2023/12/04 06:23:41;;;;;;;9.05;6.72;;;6.00;99.90;;;;;;5136407;28;20031;-72
2023/12/04 06:26:08;;;;;;;15.38;9.98;;;6.00;99.90;;;;;;5136195;28;20015;-72
2023/12/04 06:28:34;;;;;;;9.80;6.80;;;6.00;99.90;;;;;;5136441;28;20011;-72
2023/12/04 06:31:00;;;;;;;16.05;8.05;;;6.10;99.90;;;;;;5135671;28;20056;-71
2023/12/04 06:33:26;;;;;;;9.25;6.53;;;6.10;99.90;;;;;;5117653;28;20407;-74
2023/12/04 06:35:52;;;;;;;15.93;7.47;;;6.10;99.90;;;;;;5135833;28;20019;-72
2023/12/04 06:38:23;;;;;;;19.13;7.40;;;6.10;99.90;;;;;;5117602;28;20702;-73
2023/12/04 06:40:49;;;;;;;11.48;6.72;;;6.10;99.90;;;;;;5135986;28;20015;-73
2023/12/04 06:43:18;;;;;;;13.02;7.53;;;6.10;99.90;;;;;;5136256;28;20103;-73
2023/12/04 06:45:44;;;;;;;8.93;6.72;;;6.10;99.90;;;;;;5135787;28;20428;-72
2023/12/04 06:48:13;;;;;;;7.97;6.32;;;6.10;99.90;;;;;;5117609;28;20031;-72
2023/12/04 06:50:40;;;;;;;10.65;6.53;;;6.10;99.90;;;;;;5136021;28;20394;-74
2023/12/04 06:53:06;;;;;;;14.85;7.82;;;6.10;99.90;;;;;;5135930;28;20441;-73
2023/12/04 06:55:31;;;;;;;10.02;7.25;;;6.10;99.90;;;;;;5116084;28;20028;-73
2023/12/04 06:57:57;;;;;;;9.02;6.78;;;6.10;99.90;;;;;;5114145;28;20050;-73
2023/12/04 07:00:22;;;;;;;14.45;7.43;;;6.10;99.90;;;;;;5133402;28;20020;-73
2023/12/04 07:02:50;;;;;;;14.82;7.70;;;6.10;99.90;;;;;;5135817;28;20031;-73
2023/12/04 07:05:15;;;;;;;15.35;8.10;;;6.00;99.90;;;;;;5116320;28;20020;-73
2023/12/04 07:07:41;;;;;;;11.55;7.15;;;6.00;99.90;;;;;;5135652;28;20030;-73
2023/12/04 07:10:07;;;;;;;13.63;7.85;;;6.00;99.90;;;;;;5116234;28;20024;-74
2023/12/04 07:12:33;;;;;;;12.98;7.72;;;6.00;99.90;;;;;;5117336;27;20032;-73
2023/12/04 07:14:59;;;;;;;11.70;7.47;;;6.00;99.90;;;;;;5138221;27;20547;-75
2023/12/04 07:17:25;;;;;;;10.23;7.30;;;6.00;99.90;;;;;;5120872;27;20106;-73
2023/12/04 07:19:50;;;;;;;11.90;7.35;;;6.00;99.90;;;;;;5132409;27;20456;-74
2023/12/04 07:22:16;;;;;;;13.27;8.43;;;6.00;99.90;;;;;;5117512;28;20110;-74
2023/12/04 07:24:42;;;;;;;18.27;10.48;;;6.10;99.90;;;;;;5137187;27;20039;-73
2023/12/04 07:27:09;;;;;;;10.70;7.40;;;6.10;99.90;;;;;;5139386;27;20484;-75
2023/12/04 07:29:34;;;;;;;10.18;7.03;;;6.10;99.90;;;;;;5139281;27;20551;-75
2023/12/04 07:32:00;;;;;;;9.15;7.13;;;6.10;99.90;;;;;;5117333;28;20027;-72
2023/12/04 07:34:26;;;;;;;12.27;7.72;;;6.10;99.90;;;;;;5136936;27;20026;-73
2023/12/04 07:36:52;;;;;;;11.73;7.18;;;6.10;99.90;;;;;;5139175;27;20019;-73
2023/12/04 07:39:17;;;;;;;10.30;7.47;;;6.20;99.90;;;;;;5138771;27;20023;-73
2023/12/04 07:41:43;;;;;;;13.32;8.15;;;6.20;99.90;;;;;;5117197;28;20084;-74
2023/12/04 07:44:09;;;;;;;12.13;7.32;;;6.20;99.90;;;;;;5136659;27;20039;-74
2023/12/04 07:46:34;;;;;;;15.95;7.60;;;6.20;99.90;;;;;;5120261;27;20035;-74
2023/12/04 07:49:00;;;;;;;9.48;7.40;;;6.20;99.90;;;;;;5128694;27;20057;-74
2023/12/04 07:51:26;;;;;;;19.48;7.53;;;6.20;99.90;;;;;;5122065;27;20026;-73
2023/12/04 07:53:51;;;;;;;11.93;8.25;;;6.20;99.90;;;;;;5127571;27;20051;-73
2023/12/04 07:56:17;;;;;;;16.75;10.80;;;6.30;99.90;;;;;;5133022;27;20027;-74
2023/12/04 07:58:43;;;;;;;16.92;9.50;;;6.30;99.90;;;;;;5128936;27;20023;-84
2023/12/04 08:01:09;;;;;;;17.20;9.70;;;6.30;99.90;;;;;;5128358;27;20030;-79
2023/12/04 08:03:34;;;;;;;12.52;10.23;;;6.30;99.90;;;;;;5116013;27;20020;-79
2023/12/04 08:06:00;;;;;;;17.08;8.73;;;6.40;99.90;;;;;;5113519;27;20030;-83
2023/12/04 08:08:26;;;;;;;16.38;8.60;;;6.50;99.90;;;;;;5132277;27;20079;-83
2023/12/04 08:10:51;;;;;;;15.93;8.27;;;6.50;99.90;;;;;;5135023;27;20062;-84
2023/12/04 08:13:17;;;;;;;15.20;7.80;;;6.60;99.90;;;;;;5130852;27;20639;-85
2023/12/04 08:15:44;;;;;;;9.52;7.22;;;6.60;99.90;;;;;;5132086;27;20023;-85
2023/12/04 08:18:09;;;;;;;13.18;8.50;;;6.70;99.90;;;;;;5124260;27;20030;-84
2023/12/04 08:20:35;;;;;;;18.30;11.05;;;6.80;99.90;;;;;;5126420;27;20032;-85
2023/12/04 08:23:01;;;;;;;22.27;11.60;;;6.80;99.90;;;;;;5123992;27;20055;-84
2023/12/04 08:25:27;;;;;;;22.58;14.48;;;6.90;99.90;;;;;;5128396;27;20035;-85
2023/12/04 08:27:52;;;;;;;17.02;10.32;;;7.00;99.90;;;;;;5135591;27;20486;-85
2023/12/04 08:30:18;;;;;;;19.60;13.77;;;7.10;99.90;;;;;;5133707;27;20065;-84
2023/12/04 08:32:44;;;;;;;19.70;12.45;;;7.20;99.90;;;;;;5126002;27;20030;-83
2023/12/04 08:35:10;;;;;;;19.70;11.02;;;7.30;99.90;;;;;;5119099;27;20047;-84
2023/12/04 08:37:36;;;;;;;14.30;9.18;;;7.40;99.90;;;;;;5127179;27;20865;-83
2023/12/04 08:40:02;;;;;;;16.23;9.55;;;7.50;99.90;;;;;;5119132;27;20023;-84
2023/12/04 08:42:29;;;;;;;13.60;8.98;;;7.50;99.90;;;;;;5128820;27;20023;-85
2023/12/04 08:44:55;;;;;;;14.32;7.80;;;7.50;99.90;;;;;;5122731;27;20023;-84
2023/12/04 08:47:20;;;;;;;17.05;8.93;;;7.50;99.90;;;;;;5116797;27;20111;-84
2023/12/04 08:49:46;;;;;;;11.65;7.70;;;7.60;99.90;;;;;;5136685;27;20023;-84
2023/12/04 08:52:12;;;;;;;13.18;8.35;;;7.60;99.90;;;;;;5107119;27;20030;-82
2023/12/04 08:54:41;;;;;;;19.10;11.02;;;7.60;99.90;;;;;;5112990;28;20420;-83
2023/12/04 08:57:07;;;;;;;14.68;8.80;;;7.70;99.90;;;;;;5122302;27;20463;-83
2023/12/04 08:59:33;;;;;;;13.02;8.60;;;7.80;99.90;;;;;;5119706;27;20016;-84
2023/12/04 09:01:59;;;;;;;16.00;7.95;;;7.80;99.90;;;;;;5111863;28;20483;-85
2023/12/04 09:04:24;;;;;;;11.63;7.25;;;7.70;99.90;;;;;;5119158;27;20047;-84
2023/12/04 09:06:50;;;;;;;13.02;8.07;;;7.70;99.90;;;;;;5122257;27;20027;-84
2023/12/04 09:09:16;;;;;;;12.95;8.20;;;7.60;99.90;;;;;;5118811;27;20019;-84
2023/12/04 09:11:43;;;;;;;13.13;7.85;;;7.50;99.90;;;;;;5122357;27;20080;-83
2023/12/04 09:14:09;;;;;;;15.95;9.45;;;7.50;99.90;;;;;;5120327;27;20379;-83
2023/12/04 09:16:35;;;;;;;12.00;7.10;;;7.50;99.90;;;;;;5130879;27;20050;-70
2023/12/04 09:19:00;;;;;;;18.38;8.65;;;7.60;99.90;;;;;;5114391;27;20019;-73
2023/12/04 09:21:26;;;;;;;11.00;7.57;;;7.60;99.90;;;;;;5129080;27;20121;-71
2023/12/04 09:23:52;;;;;;;15.65;8.27;;;7.60;99.90;;;;;;5110980;27;20106;-72
2023/12/04 09:26:18;;;;;;;10.75;7.43;;;7.70;99.90;;;;;;5129229;27;20023;-71
2023/12/04 09:28:44;;;;;;;14.32;7.88;;;7.80;99.90;;;;;;5132296;27;20510;-71
2023/12/04 09:31:09;;;;;;;15.40;7.75;;;7.90;99.90;;;;;;5133082;27;20072;-71
2023/12/04 09:33:36;;;;;;;11.88;7.45;;;8.00;99.90;;;;;;5114152;27;20023;-71
2023/12/04 09:36:02;;;;;;;16.27;7.20;;;8.00;99.90;;;;;;5111449;28;20035;-71
2023/12/04 09:38:28;;;;;;;14.88;7.55;;;8.10;99.90;;;;;;5111440;27;20046;-70
2023/12/04 09:40:59;;;;;;;12.75;7.13;;;8.10;99.90;;;;;;5133627;27;20118;-71
2023/12/04 09:43:26;;;;;;;14.75;7.07;;;8.10;99.90;;;;;;5114361;27;20027;-71
2023/12/04 09:45:52;;;;;;;14.63;7.10;;;8.20;99.90;;;;;;5114789;28;20035;-71
2023/12/04 09:48:18;;;;;;;20.38;8.00;;;8.20;99.90;;;;;;5131704;27;20030;-71
2023/12/04 09:50:46;;;;;;;14.05;7.65;;;8.20;99.90;;;;;;5131057;27;20027;-71
2023/12/04 09:53:13;;;;;;;17.90;8.30;;;8.20;99.90;;;;;;5125054;27;20043;-70
2023/12/04 09:55:40;;;;;;;12.25;8.45;;;8.20;99.90;;;;;;5127023;27;20066;-70
2023/12/04 09:58:07;;;;;;;18.67;10.05;;;8.30;99.90;;;;;;5115447;27;20047;-70
2023/12/04 10:00:33;;;;;;;23.33;9.40;;;8.50;99.90;;;;;;5130917;27;20047;-70
2023/12/04 10:02:59;;;;;;;16.52;8.60;;;8.70;99.90;;;;;;5113748;27;20019;-70
2023/12/04 10:05:25;;;;;;;17.13;8.95;;;8.90;99.90;;;;;;5135092;27;20022;-70
2023/12/04 10:07:51;;;;;;;12.88;8.10;;;9.20;99.90;;;;;;5115527;28;20110;-71
2023/12/04 10:10:18;;;;;;;9.02;6.60;;;9.40;99.90;;;;;;5133670;28;20095;-71
2023/12/04 10:12:43;;;;;;;14.15;5.43;;;9.60;99.90;;;;;;5132427;28;20031;-70
2023/12/04 10:15:11;;;;;;;8.90;4.70;;;9.80;99.90;;;;;;5110989;28;20044;-74
2023/12/04 10:17:39;;;;;;;6.90;4.28;;;10.00;99.90;;;;;;5127972;28;20453;-74
2023/12/04 10:20:12;;;;;;;12.70;4.25;;;10.20;99.90;;;;;;5132241;28;20030;-75
2023/12/04 10:22:54;;;;;;;18.65;5.22;;;10.40;99.90;;;;;;5127526;28;20057;-76
2023/12/04 10:25:20;;;;;;;5.80;3.47;;;10.60;99.90;;;;;;5110988;28;20032;-75
2023/12/04 10:27:46;;;;;;;6.25;3.80;;;10.70;99.90;;;;;;5132479;28;20027;-77
2023/12/04 10:30:30;;;;;;;7.38;3.30;;;10.70;99.90;;;;;;5130945;28;20072;-74
2023/12/04 10:33:04;;;;;;;8.82;5.22;;;10.70;99.90;;;;;;5122769;28;20110;-73
2023/12/04 10:35:37;;;;;;;6.40;3.42;;;10.60;99.90;;;;;;5130074;28;20019;-73
2023/12/04 10:38:04;;;;;;;7.45;3.90;;;10.50;99.90;;;;;;5098114;28;20028;-73
2023/12/04 10:40:31;;;;;;;9.38;4.00;;;10.40;99.90;;;;;;5112522;28;20019;-74
2023/12/04 10:43:26;;;;;;;14.68;8.65;;;10.20;99.90;;;;;;5125287;28;20030;-73
2023/12/04 10:45:54;;;;;;;34.67;13.40;;;10.10;99.90;;;;;;5101102;28;20032;-74
2023/12/04 10:48:20;;;;;;;109.40;41.55;;;10.10;99.90;;;;;;5118425;27;20027;-74
2023/12/04 10:50:48;;;;;;;25.45;9.98;;;10.20;99.90;;;;;;5120769;27;20019;-74
2023/12/04 10:53:15;;;;;;;24.23;11.18;;;10.30;99.90;;;;;;5137420;27;20091;-76
2023/12/04 10:55:41;;;;;;;11.98;5.88;;;10.30;99.90;;;;;;5134675;27;20031;-77
2023/12/04 10:58:13;;;;;;;94.18;41.75;;;10.40;99.90;;;;;;5134442;27;20137;-76
2023/12/04 11:00:50;;;;;;;57.97;26.40;;;10.40;99.90;;;;;;5119686;27;20030;-78
2023/12/04 11:03:32;;;;;;;114.47;48.50;;;10.50;99.90;;;;;;5133669;27;20016;-82
2023/12/04 11:06:04;;;;;;;114.53;48.60;;;10.50;99.90;;;;;;5115934;27;20065;-75
2023/12/04 11:08:33;;;;;;;75.57;32.78;;;10.60;99.90;;;;;;5136035;27;20015;-77
2023/12/04 11:11:11;;;;;;;17.08;7.38;;;10.60;99.90;;;;;;5134642;27;20039;-77
2023/12/04 11:13:41;;;;;;;12.90;5.03;;;10.70;99.90;;;;;;5134064;27;20395;-76
2023/12/04 11:16:27;;;;;;;150.68;66.22;;;10.60;99.90;;;;;;5132794;27;20042;-77
2023/12/04 11:19:07;;;;;;;86.68;36.75;;;10.70;99.90;;;;;;5134762;27;20015;-75
2023/12/04 11:21:34;;;;;;;48.47;20.98;;;10.70;99.90;;;;;;5135104;27;20043;-75
2023/12/04 11:24:01;;;;;;;238.88;99.10;;;10.70;99.90;;;;;;5129387;27;20031;-75
2023/12/04 11:26:27;;;;;;;13.77;6.28;;;10.80;99.90;;;;;;5124893;27;20027;-78
2023/12/04 11:28:53;;;;;;;129.40;55.45;;;10.80;99.90;;;;;;5132183;27;20027;-77
2023/12/04 11:31:20;;;;;;;84.30;37.38;;;10.90;99.90;;;;;;5129801;27;20035;-77
2023/12/04 11:33:45;;;;;;;11.15;6.43;;;11.00;99.90;;;;;;5130331;27;20088;-76
2023/12/04 11:36:12;;;;;;;11.63;6.85;;;11.10;99.90;;;;;;5130621;27;20032;-78
2023/12/04 11:38:46;;;;;;;8.30;4.25;;;11.30;99.90;;;;;;5132315;27;20027;-76
2023/12/04 11:41:19;;;;;;;120.40;54.85;;;11.50;99.90;;;;;;5128456;27;20487;-76
2023/12/04 11:43:49;;;;;;;7.07;3.90;;;11.60;99.90;;;;;;5128699;27;20118;-77
2023/12/04 11:46:25;;;;;;;37.22;18.92;;;11.70;99.90;;;;;;5131975;27;20023;-77
2023/12/04 11:48:54;;;;;;;16.27;10.18;;;11.70;99.90;;;;;;5129083;27;20580;-76
2023/12/04 11:51:38;;;;;;;16.88;9.48;;;11.60;99.90;;;;;;5125716;27;20034;-76
2023/12/04 11:54:07;;;;;;;8.40;5.60;;;11.60;99.90;;;;;;5128052;27;20130;-76
2023/12/04 11:56:33;;;;;;;74.63;38.53;;;11.70;99.90;;;;;;5114040;27;20550;-77
2023/12/04 11:59:06;;;;;;;8.13;3.72;;;11.90;99.90;;;;;;5129303;27;20098;-76
2023/12/04 12:01:39;;;;;;;11.95;5.03;;;12.00;99.90;;;;;;5129420;27;20030;-76
2023/12/04 12:04:05;;;;;;;6.25;3.85;;;12.00;99.90;;;;;;5131975;27;20699;-78
2023/12/04 12:06:31;;;;;;;8.77;3.78;;;12.10;99.90;;;;;;5127064;27;20103;-74
2023/12/04 12:08:57;;;;;;;6.68;3.65;;;12.20;99.90;;;;;;5130523;27;20035;-75
2023/12/04 12:11:26;;;;;;;9.30;4.38;;;12.20;99.90;;;;;;5128435;27;20023;-77
2023/12/04 12:13:54;;;;;;;9.73;4.55;;;12.30;99.90;;;;;;5125308;27;20038;-77
2023/12/04 12:16:20;;;;;;;7.53;4.57;;;12.40;99.90;;;;;;5130557;27;20039;-75
2023/12/04 12:18:47;;;;;;;6.47;3.35;;;12.60;99.90;;;;;;5125924;27;20027;-76
2023/12/04 12:21:12;;;;;;;6.88;3.17;;;12.60;99.90;;;;;;5108361;27;20062;-77
2023/12/04 12:23:39;;;;;;;23.90;10.00;;;12.60;99.90;;;;;;5131900;27;20098;-77
2023/12/04 12:26:05;;;;;;;5.68;3.40;;;12.70;99.90;;;;;;5128633;27;20031;-74
2023/12/04 12:28:31;;;;;;;7.30;3.08;;;12.60;99.90;;;;;;5130495;27;20513;-77
2023/12/04 12:30:56;;;;;;;11.30;3.72;;;12.60;99.90;;;;;;5130959;27;20034;-76
2023/12/04 12:33:23;;;;;;;9.02;3.92;;;12.60;99.90;;;;;;5109678;27;20598;-77
2023/12/04 12:35:49;;;;;;;11.00;3.90;;;12.60;99.90;;;;;;5127798;27;20042;-78
2023/12/04 12:38:15;;;;;;;7.15;3.65;;;12.60;99.90;;;;;;5129526;27;20023;-77
2023/12/04 12:40:41;;;;;;;8.70;5.25;;;12.50;99.90;;;;;;5129370;27;20048;-77
2023/12/04 12:43:08;;;;;;;5.05;3.92;;;12.60;99.90;;;;;;5131598;27;20019;-77
2023/12/04 12:45:43;;;;;;;7.75;3.33;;;12.50;99.90;;;;;;5126185;27;20050;-76